Time;durP1;ratioP1;P1;durP2;ratioP2;P2;SDS_P1;SDS_P2;PMS_P1;PMS_P2;Temp;Humidity;BMP_temperature;BMP_pressure;BME280_temperature;BME280_humidity;BME280_pressure;Samples;Min_cycle;Max_cycle;Signal;HPM_P1;HPM_P2
2021/03/23 00:02:20;;;;;;;2.63;0.70;;;;;;;;;;4961743;28;20477;-57
2021/03/23 00:04:46;;;;;;;4.03;0.70;;;;;;;;;;4964594;28;20134;-54
2021/03/23 00:07:12;;;;;;;2.88;0.77;;;;;;;;;;4962963;28;20050;-56
2021/03/23 00:09:38;;;;;;;2.50;0.70;;;;;;;;;;4962729;28;20149;-55
2021/03/23 00:12:04;;;;;;;2.38;0.70;;;;;;;;;;4962636;28;22168;-54
2021/03/23 00:14:31;;;;;;;3.33;0.75;;;;;;;;;;4964015;28;20110;-53
2021/03/23 00:16:57;;;;;;;2.90;0.60;;;;;;;;;;4963937;28;20070;-56
2021/03/23 00:19:23;;;;;;;2.92;0.70;;;;;;;;;;4960359;28;20878;-56
2021/03/23 00:21:49;;;;;;;3.30;0.93;;;;;;;;;;4964018;28;20399;-54
2021/03/23 00:24:15;;;;;;;2.28;0.50;;;;;;;;;;4963626;28;20038;-58
2021/03/23 00:26:40;;;;;;;2.10;0.60;;;;;;;;;;4960799;28;20279;-55
2021/03/23 00:29:06;;;;;;;2.58;0.73;;;;;;;;;;4977801;28;20092;-56
2021/03/23 00:31:33;;;;;;;1.67;0.57;;;;;;;;;;4963177;28;20039;-56
2021/03/23 00:33:59;;;;;;;5.13;0.85;;;;;;;;;;4965676;28;20047;-56
2021/03/23 00:36:31;;;;;;;6.47;1.02;;;;;;;;;;4965599;28;20525;-54
2021/03/23 00:38:57;;;;;;;3.53;1.00;;;;;;;;;;4964557;28;20046;-56
2021/03/23 00:41:23;;;;;;;5.60;0.90;;;;;;;;;;4962579;28;20031;-55
2021/03/23 00:43:49;;;;;;;4.03;1.40;;;;;;;;;;4965414;28;20042;-56
2021/03/23 00:46:15;;;;;;;7.63;1.60;;;;;;;;;;4964190;28;20058;-54
2021/03/23 00:48:41;;;;;;;8.05;1.42;;;;;;;;;;4961842;28;20512;-55
2021/03/23 00:51:07;;;;;;;3.20;1.13;;;;;;;;;;4963601;28;20057;-55
2021/03/23 00:53:33;;;;;;;2.97;0.75;;;;;;;;;;4961593;28;22054;-54
2021/03/23 00:56:02;;;;;;;10.02;1.50;;;;;;;;;;4964160;28;20161;-56
2021/03/23 00:58:28;;;;;;;15.07;1.73;;;;;;;;;;4964257;28;20141;-52
2021/03/23 01:00:54;;;;;;;2.95;1.13;;;;;;;;;;4965207;28;20042;-55
2021/03/23 01:03:19;;;;;;;3.25;1.50;;;;;;;;;;4964633;28;20501;-56
2021/03/23 01:05:47;;;;;;;5.25;2.97;;;;;;;;;;4963510;28;20049;-54
2021/03/23 01:08:13;;;;;;;3.28;1.75;;;;;;;;;;4963157;28;20133;-56
2021/03/23 01:10:39;;;;;;;8.35;2.25;;;;;;;;;;4959107;28;20047;-55
2021/03/23 01:13:05;;;;;;;3.85;1.70;;;;;;;;;;4963057;28;20048;-58
2021/03/23 01:15:32;;;;;;;4.05;1.83;;;;;;;;;;4961123;28;20507;-54
2021/03/23 01:17:58;;;;;;;3.28;1.60;;;;;;;;;;4964012;28;20122;-54
2021/03/23 01:20:25;;;;;;;3.50;1.50;;;;;;;;;;4959843;28;20740;-56
2021/03/23 01:22:51;;;;;;;4.97;1.50;;;;;;;;;;4962862;28;20073;-53
2021/03/23 01:25:18;;;;;;;5.15;2.20;;;;;;;;;;4963285;28;20676;-55
2021/03/23 01:27:43;;;;;;;3.38;1.77;;;;;;;;;;4959640;28;20057;-53
2021/03/23 01:30:10;;;;;;;7.78;1.98;;;;;;;;;;4958698;28;20039;-55
2021/03/23 01:32:37;;;;;;;5.32;1.75;;;;;;;;;;4961926;28;20051;-57
2021/03/23 01:35:03;;;;;;;3.72;1.90;;;;;;;;;;4961517;28;20047;-55
2021/03/23 01:37:29;;;;;;;9.27;2.03;;;;;;;;;;4962266;28;20161;-57
2021/03/23 01:39:55;;;;;;;4.80;1.27;;;;;;;;;;4961785;28;20035;-57
2021/03/23 01:42:21;;;;;;;2.85;1.27;;;;;;;;;;4960777;28;20079;-54
2021/03/23 01:45:07;;;;;;;9.68;2.10;;;;;;;;;;4961799;28;20061;-54
2021/03/23 01:47:33;;;;;;;3.88;1.65;;;;;;;;;;4991708;28;20067;-53
2021/03/23 01:49:59;;;;;;;3.95;1.90;;;;;;;;;;4960838;28;20125;-56
2021/03/23 01:52:27;;;;;;;7.60;1.38;;;;;;;;;;4954064;28;20047;-54
2021/03/23 01:55:00;;;;;;;2.70;1.35;;;;;;;;;;4962561;28;20140;-57
2021/03/23 01:57:29;;;;;;;4.78;2.30;;;;;;;;;;4961762;28;20211;-57
2021/03/23 01:59:57;;;;;;;3.20;1.30;;;;;;;;;;4959970;28;20544;-56
2021/03/23 02:02:24;;;;;;;5.63;1.65;;;;;;;;;;4959240;28;20047;-55
2021/03/23 02:04:50;;;;;;;5.80;2.78;;;;;;;;;;4962335;28;20058;-56
2021/03/23 02:07:16;;;;;;;4.35;1.95;;;;;;;;;;4962138;28;20047;-54
2021/03/23 02:09:42;;;;;;;5.72;2.20;;;;;;;;;;4958870;28;20070;-56
2021/03/23 02:12:17;;;;;;;6.00;1.70;;;;;;;;;;4961568;28;20042;-55
2021/03/23 02:14:45;;;;;;;4.45;1.45;;;;;;;;;;4960225;28;20548;-55
2021/03/23 02:17:16;;;;;;;6.28;1.85;;;;;;;;;;4961810;28;20057;-57
2021/03/23 02:19:42;;;;;;;4.60;1.40;;;;;;;;;;4961656;28;20043;-56
2021/03/23 02:22:20;;;;;;;3.28;1.80;;;;;;;;;;4962401;28;20112;-57
2021/03/23 02:24:46;;;;;;;14.38;2.20;;;;;;;;;;4960159;28;20474;-56
2021/03/23 02:27:12;;;;;;;5.57;1.77;;;;;;;;;;4961011;28;20039;-57
2021/03/23 02:29:38;;;;;;;5.70;2.13;;;;;;;;;;4960551;28;20050;-57
2021/03/23 02:32:04;;;;;;;4.10;1.60;;;;;;;;;;4962199;28;20054;-56
2021/03/23 02:34:30;;;;;;;3.13;1.15;;;;;;;;;;4960740;28;20039;-55
2021/03/23 02:36:56;;;;;;;7.47;1.70;;;;;;;;;;4961294;28;20066;-55
2021/03/23 02:39:27;;;;;;;4.93;2.03;;;;;;;;;;4988239;28;20049;-54
2021/03/23 02:41:54;;;;;;;3.75;1.48;;;;;;;;;;4957854;28;20362;-56
2021/03/23 02:44:20;;;;;;;4.25;1.83;;;;;;;;;;4969159;28;20046;-56
2021/03/23 02:46:46;;;;;;;3.78;1.65;;;;;;;;;;4967418;28;20035;-55
2021/03/23 02:49:12;;;;;;;3.80;1.70;;;;;;;;;;4962019;28;20051;-57
2021/03/23 02:51:38;;;;;;;4.78;2.50;;;;;;;;;;4966016;28;20042;-56
2021/03/23 02:54:05;;;;;;;4.05;2.20;;;;;;;;;;4962966;28;20050;-57
2021/03/23 02:56:31;;;;;;;3.92;1.90;;;;;;;;;;4963714;28;20113;-53
2021/03/23 02:58:57;;;;;;;3.38;1.20;;;;;;;;;;4964000;28;20050;-56
2021/03/23 03:01:23;;;;;;;4.22;2.10;;;;;;;;;;4963794;28;20035;-56
2021/03/23 03:03:48;;;;;;;5.00;2.05;;;;;;;;;;4964787;28;20046;-57
2021/03/23 03:06:14;;;;;;;4.22;2.20;;;;;;;;;;4964834;28;20625;-56
2021/03/23 03:08:41;;;;;;;4.90;1.98;;;;;;;;;;4961637;28;20053;-56
2021/03/23 03:11:07;;;;;;;4.97;2.30;;;;;;;;;;4960520;28;20081;-54
2021/03/23 03:13:33;;;;;;;4.07;1.80;;;;;;;;;;4962415;28;20038;-56
2021/03/23 03:16:00;;;;;;;5.53;2.47;;;;;;;;;;4965126;28;20046;-57
2021/03/23 03:18:26;;;;;;;3.90;1.75;;;;;;;;;;4963765;28;20676;-56
2021/03/23 03:20:53;;;;;;;4.43;2.10;;;;;;;;;;4963174;28;20035;-55
2021/03/23 03:23:19;;;;;;;9.25;2.20;;;;;;;;;;4964641;28;20046;-55
2021/03/23 03:25:48;;;;;;;3.63;1.50;;;;;;;;;;4964870;28;20034;-54
2021/03/23 03:28:14;;;;;;;5.18;1.10;;;;;;;;;;4963536;28;20340;-56
2021/03/23 03:30:41;;;;;;;3.08;1.25;;;;;;;;;;4962892;28;20038;-57
2021/03/23 03:33:07;;;;;;;4.90;1.58;;;;;;;;;;4964340;28;20591;-57
2021/03/23 03:35:35;;;;;;;3.75;1.45;;;;;;;;;;4963408;28;20078;-57
2021/03/23 03:38:02;;;;;;;4.82;1.48;;;;;;;;;;4965046;28;20159;-57
2021/03/23 03:40:48;;;;;;;3.17;1.25;;;;;;;;;;4963911;28;20031;-56
2021/03/23 03:43:15;;;;;;;6.57;1.98;;;;;;;;;;4965518;28;20456;-57
2021/03/23 03:45:41;;;;;;;4.95;1.90;;;;;;;;;;4965496;28;20129;-58
2021/03/23 03:48:07;;;;;;;5.13;2.03;;;;;;;;;;4965382;28;20697;-58
2021/03/23 03:50:33;;;;;;;3.70;1.80;;;;;;;;;;4963886;28;20053;-59
2021/03/23 03:52:59;;;;;;;4.03;1.70;;;;;;;;;;4964518;28;20125;-57
2021/03/23 03:55:30;;;;;;;2.85;1.42;;;;;;;;;;4964827;28;20125;-57
2021/03/23 03:57:56;;;;;;;4.47;2.17;;;;;;;;;;4965619;28;20050;-57
2021/03/23 04:00:22;;;;;;;3.80;1.60;;;;;;;;;;4977431;28;20054;-56
2021/03/23 04:02:49;;;;;;;4.05;1.63;;;;;;;;;;4965534;28;20615;-57
2021/03/23 04:05:19;;;;;;;5.18;1.90;;;;;;;;;;4964455;28;20047;-57
2021/03/23 04:07:45;;;;;;;6.22;2.28;;;;;;;;;;4963642;28;20396;-57
2021/03/23 04:10:11;;;;;;;3.95;1.77;;;;;;;;;;4963167;28;20046;-58
2021/03/23 04:12:37;;;;;;;5.18;2.67;;;;;;;;;;4963004;28;20058;-58
2021/03/23 04:15:03;;;;;;;7.03;2.95;;;;;;;;;;4963234;28;20051;-57
2021/03/23 04:17:29;;;;;;;3.88;2.08;;;;;;;;;;4962639;28;20176;-56
2021/03/23 04:19:55;;;;;;;4.00;2.00;;;;;;;;;;4964530;28;20034;-56
2021/03/23 04:22:24;;;;;;;5.72;2.55;;;;;;;;;;4963502;28;20153;-55
2021/03/23 04:24:50;;;;;;;6.20;3.00;;;;;;;;;;4962535;28;20057;-56
2021/03/23 04:27:15;;;;;;;3.78;2.05;;;;;;;;;;4964481;28;20031;-57
2021/03/23 04:29:41;;;;;;;5.43;2.60;;;;;;;;;;4963505;28;20098;-57
2021/03/23 04:32:07;;;;;;;4.28;2.28;;;;;;;;;;4963911;28;20043;-56
2021/03/23 04:34:33;;;;;;;7.07;4.00;;;;;;;;;;4963272;28;20046;-56
2021/03/23 04:36:59;;;;;;;5.55;2.72;;;;;;;;;;4964000;28;20408;-57
2021/03/23 04:39:25;;;;;;;6.88;3.10;;;;;;;;;;4964191;28;20034;-57
2021/03/23 04:41:51;;;;;;;6.85;3.40;;;;;;;;;;4964562;28;20053;-57
2021/03/23 04:44:17;;;;;;;5.47;3.05;;;;;;;;;;4965324;28;20045;-57
2021/03/23 04:46:43;;;;;;;4.72;2.15;;;;;;;;;;4964423;28;20034;-55
2021/03/23 04:49:09;;;;;;;5.65;3.50;;;;;;;;;;4963586;28;20221;-59
2021/03/23 04:51:34;;;;;;;5.90;3.15;;;;;;;;;;4959157;28;20054;-57
2021/03/23 04:54:02;;;;;;;5.30;2.63;;;;;;;;;;4990702;28;20035;-57
2021/03/23 04:56:30;;;;;;;6.07;3.33;;;;;;;;;;4964182;28;20125;-57
2021/03/23 04:58:56;;;;;;;5.65;3.03;;;;;;;;;;4962955;28;20065;-56
2021/03/23 05:01:22;;;;;;;5.40;3.08;;;;;;;;;;4963268;28;20129;-57
2021/03/23 05:03:52;;;;;;;5.68;3.13;;;;;;;;;;4964025;28;20080;-57
2021/03/23 05:06:18;;;;;;;4.90;2.20;;;;;;;;;;4963945;28;20404;-57
2021/03/23 05:08:44;;;;;;;5.53;2.58;;;;;;;;;;4963270;28;20042;-57
2021/03/23 05:11:11;;;;;;;8.90;3.90;;;;;;;;;;4962522;28;20038;-56
2021/03/23 05:13:37;;;;;;;5.00;2.78;;;;;;;;;;4960861;28;20034;-57
2021/03/23 05:16:03;;;;;;;7.75;3.15;;;;;;;;;;4963829;28;20089;-55
2021/03/23 05:18:29;;;;;;;6.13;4.38;;;;;;;;;;4963222;28;20039;-56
2021/03/23 05:20:55;;;;;;;6.10;3.40;;;;;;;;;;4964173;28;20606;-56
2021/03/23 05:23:21;;;;;;;5.53;2.55;;;;;;;;;;4962528;28;20047;-57
2021/03/23 05:25:47;;;;;;;5.90;3.40;;;;;;;;;;4959833;28;20563;-54
2021/03/23 05:28:13;;;;;;;5.47;3.42;;;;;;;;;;4959579;28;20045;-56
2021/03/23 05:30:39;;;;;;;5.15;3.08;;;;;;;;;;4943683;28;20134;-57
2021/03/23 05:33:06;;;;;;;4.47;2.17;;;;;;;;;;4940353;28;20034;-57
2021/03/23 05:35:33;;;;;;;7.18;4.03;;;;;;;;;;4942841;28;20051;-58
2021/03/23 05:37:59;;;;;;;5.40;2.92;;;;;;;;;;4942986;28;20178;-57
2021/03/23 05:40:25;;;;;;;5.55;1.85;;;;;;;;;;4942907;28;20043;-56
2021/03/23 05:43:06;;;;;;;5.07;2.80;;;;;;;;;;4963076;28;22621;-57
2021/03/23 05:45:34;;;;;;;5.82;2.80;;;;;;;;;;4961130;28;20050;-56
2021/03/23 05:48:03;;;;;;;7.60;4.55;;;;;;;;;;4962318;28;20476;-57
2021/03/23 05:50:31;;;;;;;6.97;4.65;;;;;;;;;;4960647;28;20142;-57
2021/03/23 05:53:00;;;;;;;5.28;2.70;;;;;;;;;;4961481;28;20508;-56
2021/03/23 05:55:39;;;;;;;5.80;3.05;;;;;;;;;;4960895;28;20045;-56
2021/03/23 05:58:05;;;;;;;5.13;2.67;;;;;;;;;;4960987;28;20054;-56
2021/03/23 06:00:35;;;;;;;4.80;2.78;;;;;;;;;;4962089;28;20121;-55
2021/03/23 06:03:01;;;;;;;7.05;3.65;;;;;;;;;;4959853;28;20034;-55
2021/03/23 06:05:30;;;;;;;4.68;2.42;;;;;;;;;;4961572;28;20625;-56
2021/03/23 06:08:02;;;;;;;7.20;4.65;;;;;;;;;;4963575;28;20137;-55
2021/03/23 06:10:28;;;;;;;7.25;3.22;;;;;;;;;;4960539;28;20571;-55
2021/03/23 06:13:02;;;;;;;5.03;2.47;;;;;;;;;;4960349;28;20065;-57
2021/03/23 06:15:36;;;;;;;5.55;3.05;;;;;;;;;;4961479;28;20507;-57
2021/03/23 06:18:16;;;;;;;5.47;2.53;;;;;;;;;;4961288;28;20082;-57
2021/03/23 06:20:42;;;;;;;5.80;3.15;;;;;;;;;;4959777;28;20058;-57
2021/03/23 06:23:23;;;;;;;6.25;3.45;;;;;;;;;;4961407;28;20164;-56
2021/03/23 06:26:00;;;;;;;6.53;3.60;;;;;;;;;;4965654;28;20038;-56
2021/03/23 06:28:55;;;;;;;9.63;6.32;;;;;;;;;;4967624;28;20074;-57
2021/03/23 06:31:39;;;;;;;6.20;3.22;;;;;;;;;;4958349;28;20074;-59
2021/03/23 06:34:05;;;;;;;7.40;4.38;;;;;;;;;;4992242;28;20049;-55
2021/03/23 06:36:31;;;;;;;7.40;4.72;;;;;;;;;;4965922;28;20054;-56
2021/03/23 06:38:57;;;;;;;8.27;5.75;;;;;;;;;;4964438;28;20587;-55
2021/03/23 06:41:25;;;;;;;8.07;4.30;;;;;;;;;;4964765;28;20046;-55
2021/03/23 06:43:52;;;;;;;6.75;3.83;;;;;;;;;;4967205;28;20031;-57
2021/03/23 06:46:27;;;;;;;7.70;4.80;;;;;;;;;;4966505;28;20034;-57
2021/03/23 06:49:11;;;;;;;14.52;7.25;;;;;;;;;;4966263;28;20061;-57
2021/03/23 06:51:37;;;;;;;8.45;5.55;;;;;;;;;;4965458;28;20498;-56
2021/03/23 06:54:32;;;;;;;7.70;5.50;;;;;;;;;;4964401;28;20038;-57
2021/03/23 06:57:01;;;;;;;9.80;6.53;;;;;;;;;;4969315;28;20046;-54
2021/03/23 06:59:27;;;;;;;7.22;4.68;;;;;;;;;;4964428;28;20086;-57
2021/03/23 07:02:00;;;;;;;7.05;4.10;;;;;;;;;;4964432;28;20053;-58
2021/03/23 07:04:29;;;;;;;9.23;5.30;;;;;;;;;;4964588;28;20050;-59
2021/03/23 07:07:22;;;;;;;7.50;4.43;;;;;;;;;;4966413;28;20981;-56
2021/03/23 07:09:50;;;;;;;7.47;3.80;;;;;;;;;;4963004;28;20043;-55
2021/03/23 07:12:16;;;;;;;10.80;6.53;;;;;;;;;;4965269;28;20040;-56
2021/03/23 07:14:46;;;;;;;9.07;5.20;;;;;;;;;;4964697;28;20046;-57
2021/03/23 07:17:12;;;;;;;10.35;5.05;;;;;;;;;;4965667;28;20181;-57
2021/03/23 07:19:49;;;;;;;10.15;6.25;;;;;;;;;;4963868;28;20050;-57
2021/03/23 07:22:18;;;;;;;10.38;4.57;;;;;;;;;;4965075;28;20051;-54
2021/03/23 07:24:52;;;;;;;6.18;3.03;;;;;;;;;;4965248;28;20045;-55
2021/03/23 07:27:19;;;;;;;5.82;3.67;;;;;;;;;;4965571;28;20097;-54
2021/03/23 07:29:46;;;;;;;6.22;3.70;;;;;;;;;;4962434;28;22175;-59
2021/03/23 07:32:15;;;;;;;7.32;4.15;;;;;;;;;;4964591;28;20085;-56
2021/03/23 07:34:43;;;;;;;5.95;3.33;;;;;;;;;;4964106;28;20047;-56
2021/03/23 07:37:13;;;;;;;4.60;2.53;;;;;;;;;;4964216;28;20055;-57
2021/03/23 07:39:44;;;;;;;5.68;2.38;;;;;;;;;;4965287;28;20046;-56
2021/03/23 07:42:16;;;;;;;5.22;2.15;;;;;;;;;;4964417;28;20046;-57
2021/03/23 07:44:44;;;;;;;5.43;2.92;;;;;;;;;;4963855;28;20039;-54
2021/03/23 07:47:15;;;;;;;4.88;3.03;;;;;;;;;;4965226;28;20070;-56
2021/03/23 07:49:47;;;;;;;5.32;2.88;;;;;;;;;;4963853;28;20423;-56
2021/03/23 07:52:32;;;;;;;6.53;3.92;;;;;;;;;;4965312;28;20035;-57
2021/03/23 07:54:59;;;;;;;8.35;3.55;;;;;;;;;;4964465;28;20170;-55
2021/03/23 07:57:31;;;;;;;5.55;3.30;;;;;;;;;;4964078;28;20050;-55
2021/03/23 08:00:04;;;;;;;5.28;2.72;;;;;;;;;;4964137;28;20043;-56
2021/03/23 08:02:41;;;;;;;5.45;2.63;;;;;;;;;;4966035;28;20508;-56
2021/03/23 08:05:16;;;;;;;5.00;2.50;;;;;;;;;;4965976;28;20035;-55
2021/03/23 08:07:51;;;;;;;6.70;3.47;;;;;;;;;;4965923;28;20085;-57
2021/03/23 08:10:16;;;;;;;5.57;3.00;;;;;;;;;;4964323;28;20049;-57
2021/03/23 08:13:05;;;;;;;5.25;2.83;;;;;;;;;;4965601;28;20046;-55
2021/03/23 08:15:43;;;;;;;7.25;2.75;;;;;;;;;;4964525;28;20038;-56
2021/03/23 08:18:27;;;;;;;7.90;3.70;;;;;;;;;;4968451;28;20050;-55
2021/03/23 08:21:05;;;;;;;6.47;2.95;;;;;;;;;;4983889;28;20042;-58
2021/03/23 08:23:37;;;;;;;8.32;4.72;;;;;;;;;;4969194;28;20031;-56
2021/03/23 08:26:15;;;;;;;6.63;4.15;;;;;;;;;;4968463;28;20093;-56
2021/03/23 08:28:56;;;;;;;4.28;2.20;;;;;;;;;;4967223;28;20156;-57
2021/03/23 08:31:35;;;;;;;6.13;3.05;;;;;;;;;;4970951;28;20054;-56
2021/03/23 08:34:19;;;;;;;6.82;4.45;;;;;;;;;;4978093;28;21009;-57
2021/03/23 08:36:48;;;;;;;7.63;4.20;;;;;;;;;;4942551;28;20057;-57
2021/03/23 08:39:32;;;;;;;8.02;4.53;;;;;;;;;;4976061;28;20115;-56
2021/03/23 08:42:04;;;;;;;7.57;5.10;;;;;;;;;;4974737;28;20057;-58
2021/03/23 08:44:30;;;;;;;7.68;3.63;;;;;;;;;;4974907;28;20042;-56
2021/03/23 08:46:57;;;;;;;8.75;5.35;;;;;;;;;;4976664;28;20047;-56
2021/03/23 08:49:23;;;;;;;8.15;4.45;;;;;;;;;;4976613;28;20035;-57
2021/03/23 08:51:50;;;;;;;6.63;4.15;;;;;;;;;;4978812;28;20043;-58
2021/03/23 08:54:35;;;;;;;9.65;5.55;;;;;;;;;;4976991;28;20049;-57
2021/03/23 08:57:01;;;;;;;7.30;3.90;;;;;;;;;;4971408;28;20058;-55
2021/03/23 08:59:33;;;;;;;9.00;5.40;;;;;;;;;;4962412;28;20045;-55
2021/03/23 09:02:00;;;;;;;10.02;5.05;;;;;;;;;;4964610;28;20042;-57
2021/03/23 09:04:34;;;;;;;7.10;3.80;;;;;;;;;;4962443;28;20088;-55
2021/03/23 09:07:18;;;;;;;8.82;4.72;;;;;;;;;;4965515;28;20053;-54
2021/03/23 09:09:45;;;;;;;9.70;4.80;;;;;;;;;;4961796;28;20046;-56
2021/03/23 09:12:33;;;;;;;6.47;3.80;;;;;;;;;;4966305;28;20057;-55
2021/03/23 09:15:08;;;;;;;9.45;5.13;;;;;;;;;;4956330;28;20121;-57
2021/03/23 09:17:47;;;;;;;8.63;4.97;;;;;;;;;;4977883;28;20055;-55
2021/03/23 09:20:32;;;;;;;7.47;4.38;;;;;;;;;;4962333;28;20050;-55
2021/03/23 09:23:21;;;;;;;8.27;5.20;;;;;;;;;;4962759;28;20055;-56
2021/03/23 09:26:01;;;;;;;8.75;4.82;;;;;;;;;;4959928;28;20046;-57
2021/03/23 09:28:30;;;;;;;8.95;5.78;;;;;;;;;;4961245;28;20038;-55
2021/03/23 09:30:57;;;;;;;10.32;6.32;;;;;;;;;;4962413;28;20038;-53
2021/03/23 09:33:23;;;;;;;8.90;5.07;;;;;;;;;;4962425;28;20062;-57
2021/03/23 09:36:10;;;;;;;8.30;5.22;;;;;;;;;;4962173;28;20039;-56
2021/03/23 09:38:45;;;;;;;9.77;5.40;;;;;;;;;;4952218;28;20834;-56
2021/03/23 09:41:20;;;;;;;9.85;5.75;;;;;;;;;;4962301;28;20058;-56
2021/03/23 09:43:47;;;;;;;8.45;5.43;;;;;;;;;;4961022;28;20046;-55
2021/03/23 09:46:23;;;;;;;10.15;5.47;;;;;;;;;;4961854;28;20039;-56
2021/03/23 09:48:52;;;;;;;8.48;5.30;;;;;;;;;;4960558;28;20436;-56
2021/03/23 09:51:27;;;;;;;8.02;4.95;;;;;;;;;;4961326;28;20045;-57
2021/03/23 09:53:53;;;;;;;8.93;6.05;;;;;;;;;;4969069;28;20507;-56
2021/03/23 09:56:23;;;;;;;7.80;4.82;;;;;;;;;;4975256;28;20038;-54
2021/03/23 09:59:08;;;;;;;9.63;5.18;;;;;;;;;;4961214;28;20046;-56
2021/03/23 10:01:35;;;;;;;9.80;5.32;;;;;;;;;;4961719;28;20050;-56
2021/03/23 10:04:03;;;;;;;11.02;5.47;;;;;;;;;;4963207;28;20031;-56
2021/03/23 10:06:31;;;;;;;9.25;5.72;;;;;;;;;;4959374;28;20063;-55
2021/03/23 10:08:57;;;;;;;10.52;5.72;;;;;;;;;;4962127;28;20043;-54
2021/03/23 10:11:24;;;;;;;10.50;5.90;;;;;;;;;;4961322;28;20039;-57
2021/03/23 10:13:51;;;;;;;9.57;6.00;;;;;;;;;;4962747;28;20502;-57
2021/03/23 10:16:27;;;;;;;10.18;6.10;;;;;;;;;;4961714;28;20046;-57
2021/03/23 10:18:54;;;;;;;10.40;5.93;;;;;;;;;;4961714;28;20140;-56
2021/03/23 10:21:25;;;;;;;10.40;6.38;;;;;;;;;;4960852;28;20038;-56
2021/03/23 10:23:52;;;;;;;14.07;7.90;;;;;;;;;;4962078;28;20039;-56
2021/03/23 10:26:19;;;;;;;10.65;6.82;;;;;;;;;;4961877;28;20069;-55
2021/03/23 10:28:49;;;;;;;10.80;6.72;;;;;;;;;;4962791;28;20109;-55
2021/03/23 10:31:28;;;;;;;10.45;6.43;;;;;;;;;;4961705;28;20042;-56
2021/03/23 10:34:03;;;;;;;11.43;6.85;;;;;;;;;;4961468;28;20042;-58
2021/03/23 10:36:40;;;;;;;10.30;6.65;;;;;;;;;;4961227;28;20050;-56
2021/03/23 10:39:24;;;;;;;15.90;7.32;;;;;;;;;;4960723;28;20133;-55
2021/03/23 10:41:50;;;;;;;13.65;7.90;;;;;;;;;;4949879;28;20093;-57
2021/03/23 10:44:22;;;;;;;12.73;7.10;;;;;;;;;;4962629;28;20046;-57
2021/03/23 10:46:48;;;;;;;12.30;7.47;;;;;;;;;;4961249;28;20035;-55
2021/03/23 10:49:29;;;;;;;11.73;7.63;;;;;;;;;;4961808;28;20890;-57
2021/03/23 10:51:55;;;;;;;13.15;7.70;;;;;;;;;;4960360;28;20042;-54
2021/03/23 10:54:23;;;;;;;13.35;7.85;;;;;;;;;;4959271;28;20149;-55
2021/03/23 10:56:51;;;;;;;12.95;7.63;;;;;;;;;;4962163;28;20443;-58
2021/03/23 10:59:17;;;;;;;13.18;8.15;;;;;;;;;;4960926;28;20399;-56
2021/03/23 11:02:05;;;;;;;14.10;8.05;;;;;;;;;;4959349;28;20045;-57
2021/03/23 11:04:32;;;;;;;12.55;7.88;;;;;;;;;;4961234;28;20133;-56
2021/03/23 11:07:17;;;;;;;12.32;7.50;;;;;;;;;;4963607;28;20047;-54
2021/03/23 11:09:43;;;;;;;13.25;7.63;;;;;;;;;;4962303;28;20039;-55
2021/03/23 11:12:09;;;;;;;11.80;7.25;;;;;;;;;;4967750;28;20050;-56
2021/03/23 11:14:35;;;;;;;14.98;7.32;;;;;;;;;;4965307;28;20654;-56
2021/03/23 11:17:03;;;;;;;12.02;6.93;;;;;;;;;;4964898;28;20050;-57
2021/03/23 11:19:32;;;;;;;20.63;7.47;;;;;;;;;;4964082;28;20214;-57
2021/03/23 11:22:04;;;;;;;12.60;8.20;;;;;;;;;;4963034;28;20146;-55
2021/03/23 11:24:30;;;;;;;14.93;7.57;;;;;;;;;;4963120;28;20054;-56
2021/03/23 11:26:57;;;;;;;14.35;7.15;;;;;;;;;;4964244;28;20034;-56
2021/03/23 11:29:23;;;;;;;12.57;7.53;;;;;;;;;;4963014;28;20602;-53
2021/03/23 11:31:49;;;;;;;15.43;8.63;;;;;;;;;;4964191;28;20046;-56
2021/03/23 11:34:14;;;;;;;12.02;8.07;;;;;;;;;;4964084;28;20042;-55
2021/03/23 11:36:40;;;;;;;11.73;7.82;;;;;;;;;;4964066;28;20062;-57
2021/03/23 11:39:08;;;;;;;14.27;7.38;;;;;;;;;;4965730;28;20046;-56
2021/03/23 11:41:40;;;;;;;13.88;7.45;;;;;;;;;;4963317;28;20042;-57
2021/03/23 11:44:07;;;;;;;12.38;7.35;;;;;;;;;;4964508;28;20571;-58
2021/03/23 11:46:42;;;;;;;15.07;7.63;;;;;;;;;;4963923;28;20432;-58
2021/03/23 11:49:12;;;;;;;11.63;7.55;;;;;;;;;;4964730;28;20081;-58
2021/03/23 11:51:41;;;;;;;13.98;7.75;;;;;;;;;;4964412;28;20070;-57
2021/03/23 11:54:07;;;;;;;14.63;8.20;;;;;;;;;;4964218;28;20082;-57
2021/03/23 11:56:33;;;;;;;15.52;8.02;;;;;;;;;;4965381;28;20089;-57
2021/03/23 11:58:59;;;;;;;17.58;7.88;;;;;;;;;;4964295;28;20428;-57
2021/03/23 12:01:25;;;;;;;12.10;7.55;;;;;;;;;;4963979;28;20543;-56
2021/03/23 12:03:52;;;;;;;14.18;7.30;;;;;;;;;;4966493;28;20034;-56
2021/03/23 12:06:38;;;;;;;13.20;7.03;;;;;;;;;;4962207;28;20571;-56
2021/03/23 12:09:13;;;;;;;12.90;8.00;;;;;;;;;;4966251;28;20591;-57
2021/03/23 12:11:43;;;;;;;14.18;7.90;;;;;;;;;;4962012;28;20570;-56
2021/03/23 12:14:20;;;;;;;15.52;7.85;;;;;;;;;;4964608;28;20038;-57
2021/03/23 12:16:52;;;;;;;12.70;7.80;;;;;;;;;;4962118;28;20590;-56
2021/03/23 12:19:19;;;;;;;14.30;8.57;;;;;;;;;;4962995;28;20100;-57
2021/03/23 12:21:46;;;;;;;14.27;8.10;;;;;;;;;;4961115;28;20047;-56
2021/03/23 12:24:12;;;;;;;12.10;7.57;;;;;;;;;;4963829;28;20039;-56
2021/03/23 12:26:38;;;;;;;14.55;8.23;;;;;;;;;;4963070;28;20425;-56
2021/03/23 12:29:05;;;;;;;14.43;7.88;;;;;;;;;;4963080;28;20051;-56
2021/03/23 12:31:31;;;;;;;18.55;7.93;;;;;;;;;;4960720;28;20520;-56
2021/03/23 12:33:57;;;;;;;12.23;7.70;;;;;;;;;;4963614;28;20035;-56
2021/03/23 12:36:23;;;;;;;12.48;8.05;;;;;;;;;;4962213;28;20378;-56
2021/03/23 12:38:51;;;;;;;13.82;8.05;;;;;;;;;;4963810;28;20483;-56
2021/03/23 12:41:19;;;;;;;12.13;7.85;;;;;;;;;;4961025;28;20035;-56
2021/03/23 12:43:49;;;;;;;14.60;7.78;;;;;;;;;;4962070;28;20400;-56
2021/03/23 12:46:17;;;;;;;13.80;8.45;;;;;;;;;;4964407;28;20035;-57
2021/03/23 12:48:43;;;;;;;14.57;7.75;;;;;;;;;;4964316;28;20031;-57
2021/03/23 12:51:13;;;;;;;14.70;8.65;;;;;;;;;;4963624;28;20535;-57
2021/03/23 12:53:39;;;;;;;14.52;8.80;;;;;;;;;;4966151;28;20047;-56
2021/03/23 12:56:05;;;;;;;15.15;8.18;;;;;;;;;;4969243;28;20133;-57
2021/03/23 12:58:32;;;;;;;14.38;7.53;;;;;;;;;;4963496;28;20046;-56
2021/03/23 13:00:58;;;;;;;13.65;8.18;;;;;;;;;;4963077;28;20074;-57
2021/03/23 13:03:24;;;;;;;15.50;8.88;;;;;;;;;;4961842;28;20343;-55
2021/03/23 13:05:55;;;;;;;16.63;7.38;;;;;;;;;;4964001;28;20515;-56
2021/03/23 13:08:20;;;;;;;12.85;7.75;;;;;;;;;;4961368;28;20728;-56
2021/03/23 13:10:51;;;;;;;14.63;8.10;;;;;;;;;;4961989;28;20046;-55
2021/03/23 13:13:19;;;;;;;12.23;7.95;;;;;;;;;;4962898;28;20403;-56
2021/03/23 13:15:45;;;;;;;11.38;7.03;;;;;;;;;;4963087;28;20039;-56
2021/03/23 13:18:12;;;;;;;11.38;6.97;;;;;;;;;;4963566;28;20050;-55
2021/03/23 13:20:38;;;;;;;14.73;8.55;;;;;;;;;;4966508;28;20065;-55
2021/03/23 13:23:05;;;;;;;14.18;8.40;;;;;;;;;;4961391;28;20492;-57
2021/03/23 13:25:35;;;;;;;11.68;7.55;;;;;;;;;;4961418;28;20046;-57
2021/03/23 13:28:01;;;;;;;11.90;7.78;;;;;;;;;;4961456;28;20043;-56
2021/03/23 13:30:30;;;;;;;13.57;7.97;;;;;;;;;;4960984;28;20034;-57
2021/03/23 13:32:57;;;;;;;16.58;8.40;;;;;;;;;;4962397;28;20042;-57
2021/03/23 13:35:23;;;;;;;18.27;8.70;;;;;;;;;;4961483;28;20047;-56
2021/03/23 13:37:49;;;;;;;13.13;8.05;;;;;;;;;;4963271;28;20109;-56
2021/03/23 13:40:26;;;;;;;11.57;6.60;;;;;;;;;;4961004;28;20030;-57
2021/03/23 13:42:53;;;;;;;11.40;7.13;;;;;;;;;;4962767;28;20109;-56
2021/03/23 13:45:51;;;;;;;15.90;7.32;;;;;;;;;;4962314;28;20415;-56
2021/03/23 13:48:22;;;;;;;12.60;6.82;;;;;;;;;;4970175;28;20073;-54
2021/03/23 13:50:47;;;;;;;12.80;7.53;;;;;;;;;;4961015;28;20632;-56
2021/03/23 13:53:15;;;;;;;13.40;7.60;;;;;;;;;;4962380;28;20074;-56
2021/03/23 13:55:42;;;;;;;15.05;7.72;;;;;;;;;;4961062;28;20099;-55
2021/03/23 13:58:08;;;;;;;10.43;6.15;;;;;;;;;;4961706;28;20050;-54
2021/03/23 14:00:36;;;;;;;11.57;6.95;;;;;;;;;;4960372;28;20113;-56
2021/03/23 14:03:03;;;;;;;12.65;6.55;;;;;;;;;;4961548;28;20037;-56
2021/03/23 14:05:29;;;;;;;17.38;6.55;;;;;;;;;;4961969;28;20129;-55
2021/03/23 14:07:56;;;;;;;12.40;6.95;;;;;;;;;;4961908;28;20072;-56
2021/03/23 14:10:24;;;;;;;17.73;7.90;;;;;;;;;;4958842;28;20084;-53
2021/03/23 14:12:50;;;;;;;12.32;6.90;;;;;;;;;;4962342;28;20038;-55
2021/03/23 14:15:21;;;;;;;11.65;7.22;;;;;;;;;;4961591;28;20063;-56
2021/03/23 14:17:47;;;;;;;12.15;7.75;;;;;;;;;;4961656;28;20050;-54
2021/03/23 14:20:15;;;;;;;13.70;7.15;;;;;;;;;;4961544;28;20043;-56
2021/03/23 14:22:41;;;;;;;11.88;6.75;;;;;;;;;;4960299;28;20085;-55
2021/03/23 14:25:28;;;;;;;13.85;7.22;;;;;;;;;;4961383;28;20053;-57
2021/03/23 14:27:54;;;;;;;9.38;5.78;;;;;;;;;;4961125;28;20091;-55
2021/03/23 14:30:22;;;;;;;11.18;6.25;;;;;;;;;;4961112;28;20050;-56
2021/03/23 14:32:48;;;;;;;9.02;6.05;;;;;;;;;;4962093;28;20046;-56
2021/03/23 14:35:16;;;;;;;10.10;5.85;;;;;;;;;;4962056;28;20043;-56
2021/03/23 14:37:43;;;;;;;9.52;5.97;;;;;;;;;;4960243;28;20081;-56
2021/03/23 14:40:17;;;;;;;12.10;6.15;;;;;;;;;;4960310;28;20051;-55
2021/03/23 14:42:43;;;;;;;12.98;8.48;;;;;;;;;;4959901;28;20153;-57
2021/03/23 14:45:11;;;;;;;11.75;5.95;;;;;;;;;;4960269;28;20035;-56
2021/03/23 14:47:37;;;;;;;10.63;6.30;;;;;;;;;;4964494;28;20140;-57
2021/03/23 14:50:03;;;;;;;10.68;6.60;;;;;;;;;;4964190;28;20598;-57
2021/03/23 14:52:30;;;;;;;13.68;7.65;;;;;;;;;;4970312;28;20065;-56